Time;durP1;ratioP1;P1;durP2;ratioP2;P2;SDS_P1;SDS_P2;PMS_P1;PMS_P2;Temp;Humidity;BMP_temperature;BMP_pressure;BME280_temperature;BME280_humidity;BME280_pressure;Samples;Min_cycle;Max_cycle;Signal;HPM_P1;HPM_P2
2022/04/08 00:01:41;;;;;;;1.27;0.97;;;7.80;99.90;;;;;;5028486;28;20251;-78
2022/04/08 00:04:08;;;;;;;2.40;1.20;;;7.80;99.90;;;;;;5027979;28;20212;-78
2022/04/08 00:06:35;;;;;;;1.27;1.00;;;7.80;99.90;;;;;;5028670;28;20221;-77
2022/04/08 00:09:02;;;;;;;1.47;1.17;;;7.70;99.90;;;;;;5028246;28;20213;-77
2022/04/08 00:11:28;;;;;;;1.80;1.10;;;7.70;99.90;;;;;;5028355;28;20624;-77
2022/04/08 00:13:56;;;;;;;1.10;0.87;;;7.60;99.90;;;;;;5028030;28;20201;-77
2022/04/08 00:16:35;;;;;;;2.13;1.10;;;7.60;99.90;;;;;;5026069;28;20279;-77
2022/04/08 00:19:01;;;;;;;4.63;1.27;;;7.60;99.90;;;;;;5046737;28;20267;-73
2022/04/08 00:21:34;;;;;;;1.30;1.20;;;7.70;99.90;;;;;;5033041;28;20248;-74
2022/04/08 00:24:01;;;;;;;2.80;1.10;;;7.60;99.90;;;;;;5027675;28;20205;-73
2022/04/08 00:26:27;;;;;;;1.83;1.27;;;7.60;99.90;;;;;;5027830;28;20667;-73
2022/04/08 00:28:55;;;;;;;1.23;1.00;;;7.50;99.90;;;;;;5027906;28;20232;-73
2022/04/08 00:31:28;;;;;;;1.83;1.33;;;7.50;99.90;;;;;;5028022;28;20794;-74
2022/04/08 00:33:55;;;;;;;1.73;1.17;;;7.40;99.90;;;;;;5028362;28;20205;-74
2022/04/08 00:36:21;;;;;;;2.73;1.00;;;7.50;99.90;;;;;;5028104;28;20221;-74
2022/04/08 00:38:48;;;;;;;1.40;1.30;;;7.40;99.90;;;;;;5026573;28;20255;-74
2022/04/08 00:41:24;;;;;;;0.97;0.97;;;7.40;99.90;;;;;;5008374;28;20332;-73
2022/04/08 00:43:51;;;;;;;2.60;1.20;;;7.40;99.90;;;;;;5025920;28;20205;-74
2022/04/08 00:46:28;;;;;;;1.23;1.03;;;7.40;99.90;;;;;;5028025;28;20266;-73
2022/04/08 00:48:54;;;;;;;1.07;1.00;;;7.50;99.90;;;;;;5027779;28;20282;-72
2022/04/08 00:51:31;;;;;;;1.63;1.07;;;7.50;99.90;;;;;;5027866;28;20213;-72
2022/04/08 00:53:58;;;;;;;1.27;0.73;;;7.60;99.90;;;;;;5023244;28;20814;-81
2022/04/08 00:56:29;;;;;;;1.00;0.77;;;7.60;99.90;;;;;;5027844;28;20576;-82
2022/04/08 00:58:57;;;;;;;0.87;0.70;;;7.60;99.90;;;;;;5028077;28;20302;-82
2022/04/08 01:01:34;;;;;;;0.77;0.70;;;7.60;99.90;;;;;;5028062;28;20216;-81
2022/04/08 01:04:00;;;;;;;1.17;0.60;;;7.60;99.90;;;;;;5027817;28;20208;-81
2022/04/08 01:06:30;;;;;;;1.07;0.80;;;7.60;99.90;;;;;;5029485;28;20647;-81
2022/04/08 01:08:57;;;;;;;0.97;0.70;;;7.60;99.90;;;;;;5028062;28;20201;-82
2022/04/08 01:11:24;;;;;;;0.47;0.47;;;7.60;99.90;;;;;;5027837;28;20205;-81
2022/04/08 01:13:51;;;;;;;1.60;0.70;;;7.60;99.90;;;;;;5031778;28;20217;-82
2022/04/08 01:16:24;;;;;;;2.20;0.60;;;7.50;99.90;;;;;;5019593;28;20854;-72
2022/04/08 01:18:52;;;;;;;0.80;0.80;;;7.50;99.90;;;;;;5028148;28;20735;-72
2022/04/08 01:21:25;;;;;;;1.70;0.60;;;7.50;99.90;;;;;;5031208;28;20290;-72
2022/04/08 01:23:55;;;;;;;0.60;0.60;;;7.40;99.90;;;;;;5031461;28;20213;-72
2022/04/08 01:26:27;;;;;;;1.03;0.70;;;7.40;99.90;;;;;;5031253;28;20212;-72
2022/04/08 01:28:54;;;;;;;2.27;0.60;;;7.40;99.90;;;;;;5030869;28;20298;-72
2022/04/08 01:31:23;;;;;;;1.40;1.00;;;7.30;99.90;;;;;;5031519;28;20204;-75
2022/04/08 01:33:50;;;;;;;1.43;0.73;;;7.30;99.90;;;;;;5030612;28;20259;-75
2022/04/08 01:36:21;;;;;;;1.37;1.00;;;7.30;99.90;;;;;;5031133;28;20411;-75
2022/04/08 01:38:47;;;;;;;0.63;0.50;;;7.30;99.90;;;;;;5031163;28;20209;-77
2022/04/08 01:41:31;;;;;;;1.00;0.50;;;7.30;99.90;;;;;;5030682;28;20201;-74
2022/04/08 01:43:58;;;;;;;1.03;0.77;;;7.20;99.90;;;;;;5030670;28;20229;-82
2022/04/08 01:46:24;;;;;;;0.70;0.70;;;7.30;99.90;;;;;;5030758;28;20737;-75
2022/04/08 01:48:54;;;;;;;1.60;0.70;;;7.30;99.90;;;;;;5030751;28;20251;-75
2022/04/08 01:51:33;;;;;;;1.27;0.77;;;7.30;99.90;;;;;;5031171;28;20213;-75
2022/04/08 01:54:00;;;;;;;0.43;0.43;;;7.30;99.90;;;;;;5013170;28;20241;-75
2022/04/08 01:56:26;;;;;;;1.20;0.70;;;7.30;99.90;;;;;;5011073;28;20668;-79
2022/04/08 01:58:54;;;;;;;0.83;0.83;;;7.30;99.90;;;;;;5013225;28;20279;-78
2022/04/08 02:01:27;;;;;;;2.13;0.70;;;7.20;99.90;;;;;;5030580;28;20263;-74
2022/04/08 02:03:53;;;;;;;0.93;0.60;;;7.30;99.90;;;;;;5030304;28;20228;-74
2022/04/08 02:06:23;;;;;;;1.53;0.60;;;7.20;99.90;;;;;;5030561;28;20208;-74
2022/04/08 02:08:50;;;;;;;1.73;0.70;;;7.20;99.90;;;;;;5010580;28;20985;-73
2022/04/08 02:11:43;;;;;;;1.23;0.60;;;7.30;99.90;;;;;;5027150;28;20223;-74
2022/04/08 02:14:11;;;;;;;2.10;0.80;;;7.30;99.90;;;;;;5030166;28;20208;-73
2022/04/08 02:16:38;;;;;;;1.50;0.80;;;7.20;99.90;;;;;;5030642;28;20617;-74
2022/04/08 02:19:04;;;;;;;2.10;1.10;;;7.30;99.90;;;;;;5049565;28;20219;-73
2022/04/08 02:21:32;;;;;;;1.00;0.77;;;7.30;99.90;;;;;;5050036;28;20255;-73
2022/04/08 02:23:59;;;;;;;2.03;0.73;;;7.30;99.90;;;;;;5036882;28;20279;-73
2022/04/08 02:26:32;;;;;;;1.27;0.80;;;7.30;99.90;;;;;;5030193;28;20209;-73
2022/04/08 02:28:59;;;;;;;1.93;0.90;;;7.40;99.90;;;;;;5029487;28;20630;-73
2022/04/08 02:31:28;;;;;;;1.90;0.70;;;7.40;99.90;;;;;;5030395;28;20209;-74
2022/04/08 02:33:55;;;;;;;1.37;0.80;;;7.40;99.90;;;;;;5029987;28;20204;-73
2022/04/08 02:36:24;;;;;;;1.53;0.93;;;7.30;99.90;;;;;;5029781;28;20620;-73
2022/04/08 02:38:51;;;;;;;1.53;0.83;;;7.40;99.90;;;;;;5029888;28;20270;-73
2022/04/08 02:41:33;;;;;;;1.07;0.67;;;7.40;99.90;;;;;;5029320;28;20751;-73
2022/04/08 02:43:59;;;;;;;1.73;0.83;;;7.40;99.90;;;;;;5029185;28;20637;-71
2022/04/08 02:46:27;;;;;;;0.80;0.60;;;7.40;99.90;;;;;;5029826;28;20216;-70
2022/04/08 02:48:54;;;;;;;0.90;0.90;;;7.40;99.90;;;;;;5029684;28;20632;-70
2022/04/08 02:51:28;;;;;;;1.80;0.67;;;7.40;99.90;;;;;;5029853;28;20225;-75
2022/04/08 02:53:55;;;;;;;1.33;0.60;;;7.40;99.90;;;;;;5024886;28;20212;-75
2022/04/08 02:56:28;;;;;;;1.73;0.90;;;7.40;99.90;;;;;;5029711;28;20204;-75
2022/04/08 02:58:57;;;;;;;0.40;0.33;;;7.40;99.90;;;;;;5029307;28;20193;-79
2022/04/08 03:01:23;;;;;;;1.80;0.83;;;7.40;99.90;;;;;;5029389;28;20220;-74
2022/04/08 03:03:52;;;;;;;0.93;0.60;;;7.50;99.90;;;;;;5029066;28;20233;-80
2022/04/08 03:06:27;;;;;;;2.73;0.90;;;7.40;99.90;;;;;;5036168;28;20208;-76
2022/04/08 03:08:54;;;;;;;1.03;0.60;;;7.40;99.90;;;;;;5045614;28;20208;-76
2022/04/08 03:11:30;;;;;;;3.90;0.87;;;7.40;99.90;;;;;;5029278;28;20205;-75
2022/04/08 03:13:59;;;;;;;1.70;0.57;;;7.40;99.90;;;;;;5026756;28;20255;-75
2022/04/08 03:16:38;;;;;;;0.80;0.60;;;7.50;99.90;;;;;;5027400;28;20209;-75
2022/04/08 03:19:06;;;;;;;1.23;0.70;;;7.50;99.90;;;;;;5033518;28;20555;-76
2022/04/08 03:21:32;;;;;;;1.30;0.73;;;7.50;99.90;;;;;;5026927;28;20240;-75
2022/04/08 03:23:59;;;;;;;0.73;0.47;;;7.50;99.90;;;;;;5026839;28;20386;-76
2022/04/08 03:26:26;;;;;;;1.23;0.50;;;7.40;99.90;;;;;;5027315;28;20277;-76
2022/04/08 03:28:53;;;;;;;1.97;0.60;;;7.50;99.90;;;;;;5026916;28;20232;-75
2022/04/08 03:31:29;;;;;;;0.57;0.53;;;7.50;99.90;;;;;;5027601;28;20988;-75
2022/04/08 03:33:56;;;;;;;1.47;0.83;;;7.50;99.90;;;;;;5027119;28;20284;-76
2022/04/08 03:36:27;;;;;;;0.97;0.67;;;7.50;99.90;;;;;;5027003;28;20659;-75
2022/04/08 03:38:54;;;;;;;0.60;0.60;;;7.40;99.90;;;;;;5025988;28;20224;-75
2022/04/08 03:41:20;;;;;;;1.60;0.60;;;7.30;99.90;;;;;;5026468;28;20717;-75
2022/04/08 03:43:47;;;;;;;0.57;0.30;;;7.30;99.90;;;;;;5026779;28;20306;-76
2022/04/08 03:46:26;;;;;;;0.50;0.43;;;7.30;99.90;;;;;;5018520;28;20213;-75
2022/04/08 03:48:53;;;;;;;0.63;0.63;;;7.30;99.90;;;;;;5006482;28;20279;-75
2022/04/08 03:51:34;;;;;;;0.70;0.40;;;7.30;99.90;;;;;;5006541;28;20209;-76
2022/04/08 03:54:02;;;;;;;1.30;0.57;;;7.30;99.90;;;;;;5023872;28;20699;-75
2022/04/08 03:56:29;;;;;;;0.60;0.40;;;7.30;99.90;;;;;;5026192;28;20240;-76
2022/04/08 03:58:55;;;;;;;0.50;0.47;;;7.20;99.90;;;;;;5025724;28;20263;-75
2022/04/08 04:01:34;;;;;;;0.77;0.63;;;7.20;99.90;;;;;;5026938;28;20363;-75
2022/04/08 04:04:01;;;;;;;0.43;0.43;;;7.10;99.90;;;;;;5026015;28;20294;-75
2022/04/08 04:06:27;;;;;;;0.40;0.40;;;7.00;99.90;;;;;;5026585;28;20215;-74
2022/04/08 04:08:55;;;;;;;0.70;0.50;;;6.90;99.90;;;;;;5026391;28;20197;-75
2022/04/08 04:11:35;;;;;;;0.60;0.40;;;6.80;99.90;;;;;;5024579;28;20231;-75
2022/04/08 04:14:03;;;;;;;0.63;0.40;;;6.70;99.90;;;;;;5024110;28;20207;-74
2022/04/08 04:16:32;;;;;;;0.60;0.57;;;6.60;99.90;;;;;;5027507;28;20290;-75
2022/04/08 04:18:59;;;;;;;1.23;0.60;;;6.60;99.90;;;;;;5034396;28;20201;-74
2022/04/08 04:21:25;;;;;;;0.50;0.43;;;6.60;99.90;;;;;;5027056;28;20711;-74
2022/04/08 04:23:52;;;;;;;3.03;0.60;;;6.60;99.90;;;;;;5027187;28;20705;-75
2022/04/08 04:26:26;;;;;;;0.40;0.40;;;6.70;99.90;;;;;;5027418;28;20201;-74
2022/04/08 04:28:53;;;;;;;0.60;0.60;;;6.70;99.90;;;;;;5027128;28;20224;-75
2022/04/08 04:31:26;;;;;;;0.40;0.40;;;6.60;99.90;;;;;;5027098;28;20200;-74
2022/04/08 04:33:52;;;;;;;0.67;0.67;;;6.60;99.90;;;;;;5027239;28;20196;-75
2022/04/08 04:36:19;;;;;;;0.60;0.60;;;6.50;99.90;;;;;;5026877;28;20651;-74
2022/04/08 04:38:46;;;;;;;0.83;0.50;;;6.40;99.90;;;;;;5027129;28;20204;-75
2022/04/08 04:41:29;;;;;;;1.03;0.70;;;6.50;99.90;;;;;;5026593;28;20307;-75
2022/04/08 04:43:55;;;;;;;1.10;0.77;;;6.50;99.90;;;;;;5023247;28;20220;-75
2022/04/08 04:46:22;;;;;;;2.77;0.70;;;6.40;99.90;;;;;;5026836;28;20415;-75
2022/04/08 04:48:49;;;;;;;2.43;0.80;;;6.30;99.90;;;;;;5026511;28;20246;-75
2022/04/08 04:51:34;;;;;;;2.23;0.80;;;6.30;99.90;;;;;;5028924;28;20200;-75
2022/04/08 04:54:00;;;;;;;1.10;0.70;;;6.30;99.90;;;;;;5030454;28;20208;-75
2022/04/08 04:56:28;;;;;;;1.07;0.60;;;6.30;99.90;;;;;;5029472;28;20208;-75
2022/04/08 04:58:55;;;;;;;1.63;0.90;;;6.20;99.90;;;;;;5030898;28;20213;-74
2022/04/08 05:01:28;;;;;;;2.20;0.97;;;6.20;99.90;;;;;;5027212;28;20248;-74
2022/04/08 05:03:55;;;;;;;1.63;0.40;;;6.30;99.90;;;;;;5030130;28;20224;-74
2022/04/08 05:06:28;;;;;;;1.40;0.67;;;6.20;99.90;;;;;;5030416;28;20584;-75
2022/04/08 05:08:54;;;;;;;1.93;0.77;;;6.20;99.90;;;;;;5030715;28;20205;-75
2022/04/08 05:11:29;;;;;;;0.70;0.60;;;6.20;99.90;;;;;;5030332;28;20223;-75
2022/04/08 05:13:56;;;;;;;1.77;0.90;;;6.30;99.90;;;;;;5030404;28;20212;-75
2022/04/08 05:16:22;;;;;;;0.80;0.80;;;6.20;99.90;;;;;;5026564;28;20213;-75
2022/04/08 05:18:49;;;;;;;0.83;0.70;;;6.20;99.90;;;;;;5029578;28;20628;-74
2022/04/08 05:21:29;;;;;;;1.80;0.70;;;6.30;99.90;;;;;;5029948;28;20245;-75
2022/04/08 05:23:56;;;;;;;1.20;0.60;;;6.30;99.90;;;;;;5027615;28;20241;-74
2022/04/08 05:26:22;;;;;;;0.87;0.63;;;6.20;99.90;;;;;;5030453;28;20212;-75
2022/04/08 05:28:50;;;;;;;2.20;0.73;;;6.20;99.90;;;;;;5030186;28;20216;-74
2022/04/08 05:31:26;;;;;;;0.90;0.70;;;6.20;99.90;;;;;;5030317;28;20275;-75
2022/04/08 05:33:54;;;;;;;1.50;0.70;;;6.20;99.90;;;;;;5030281;28;20220;-74
2022/04/08 05:36:23;;;;;;;1.27;0.90;;;6.20;99.90;;;;;;5030037;28;20200;-75
2022/04/08 05:38:50;;;;;;;1.33;0.57;;;6.20;99.90;;;;;;5029787;28;20220;-74
2022/04/08 05:41:16;;;;;;;2.50;0.57;;;6.20;99.90;;;;;;5030351;28;20201;-74
2022/04/08 05:43:44;;;;;;;0.50;0.50;;;6.20;99.90;;;;;;5030263;28;20351;-74
2022/04/08 05:46:27;;;;;;;1.73;0.93;;;6.20;99.90;;;;;;5022584;28;20241;-75
2022/04/08 05:48:54;;;;;;;1.90;0.60;;;6.30;99.90;;;;;;5027460;28;20205;-74
2022/04/08 05:51:23;;;;;;;3.83;0.97;;;6.20;99.90;;;;;;5030181;28;20205;-75
2022/04/08 05:53:50;;;;;;;0.57;0.57;;;6.20;99.90;;;;;;5026271;28;20205;-75
2022/04/08 05:56:26;;;;;;;1.27;0.50;;;6.20;99.90;;;;;;5039225;28;20262;-75
2022/04/08 05:58:52;;;;;;;1.00;0.63;;;6.20;99.90;;;;;;5024999;28;20207;-75
2022/04/08 06:01:19;;;;;;;1.37;0.60;;;6.20;99.90;;;;;;5029170;28;20254;-76
2022/04/08 06:03:47;;;;;;;1.43;0.97;;;6.20;99.90;;;;;;5028524;28;20719;-74
2022/04/08 06:06:38;;;;;;;0.70;0.57;;;6.30;99.90;;;;;;5029454;28;20204;-74
2022/04/08 06:09:05;;;;;;;1.90;0.70;;;6.30;99.90;;;;;;5029724;28;20209;-75
2022/04/08 06:11:32;;;;;;;1.07;0.57;;;6.30;99.90;;;;;;5029427;28;20208;-75
2022/04/08 06:13:58;;;;;;;0.87;0.87;;;6.30;99.90;;;;;;5029122;28;20201;-74
2022/04/08 06:16:28;;;;;;;2.00;0.70;;;6.30;99.90;;;;;;5029022;28;20213;-74
2022/04/08 06:18:56;;;;;;;1.13;0.80;;;6.40;99.90;;;;;;5028336;28;20200;-75
2022/04/08 06:21:23;;;;;;;1.97;0.70;;;6.30;99.90;;;;;;5028789;28;20247;-74
2022/04/08 06:23:51;;;;;;;0.90;0.47;;;6.30;99.90;;;;;;5028672;28;20271;-74
2022/04/08 06:26:27;;;;;;;1.07;0.70;;;6.40;99.90;;;;;;5028993;28;20205;-74
2022/04/08 06:28:53;;;;;;;1.97;1.00;;;6.30;99.90;;;;;;5029021;28;20266;-75
2022/04/08 06:31:20;;;;;;;0.83;0.60;;;6.40;99.90;;;;;;5028978;28;20259;-75
2022/04/08 06:33:47;;;;;;;1.00;0.93;;;6.40;99.90;;;;;;5028933;28;20213;-74
2022/04/08 06:36:28;;;;;;;1.97;0.87;;;6.30;99.90;;;;;;5028794;28;20239;-74
2022/04/08 06:38:55;;;;;;;2.23;1.07;;;5.60;99.90;;;;;;5028609;28;20197;-75
2022/04/08 06:41:28;;;;;;;1.10;0.70;;;4.70;99.90;;;;;;5028803;28;20260;-75
2022/04/08 06:43:55;;;;;;;4.20;0.90;;;4.00;99.90;;;;;;5028338;28;20220;-74
2022/04/08 06:46:31;;;;;;;1.47;0.90;;;4.00;99.90;;;;;;5028218;28;20572;-74
2022/04/08 06:49:02;;;;;;;5.73;1.33;;;3.90;99.90;;;;;;5025559;28;20201;-74
2022/04/08 06:51:30;;;;;;;4.67;1.20;;;3.80;99.90;;;;;;5028714;28;20216;-75
2022/04/08 06:53:57;;;;;;;2.37;1.40;;;3.80;99.90;;;;;;5026029;28;20208;-75
2022/04/08 06:56:28;;;;;;;1.83;0.90;;;3.80;99.90;;;;;;5028617;28;20235;-75
2022/04/08 06:58:55;;;;;;;4.97;1.50;;;3.70;99.90;;;;;;5028152;28;20255;-75
2022/04/08 07:01:25;;;;;;;2.63;1.00;;;3.60;99.90;;;;;;5028210;28;20204;-74
2022/04/08 07:03:52;;;;;;;1.80;0.90;;;3.60;99.90;;;;;;5027687;28;20235;-74
2022/04/08 07:06:18;;;;;;;2.63;0.97;;;3.70;99.90;;;;;;5028239;28;20267;-74
2022/04/08 07:08:46;;;;;;;4.30;1.30;;;3.70;99.90;;;;;;5027734;28;20209;-75
2022/04/08 07:11:31;;;;;;;2.40;1.10;;;3.90;99.90;;;;;;5027795;28;20776;-74
2022/04/08 07:13:58;;;;;;;1.73;0.83;;;4.00;99.90;;;;;;5026216;28;20205;-74
2022/04/08 07:16:24;;;;;;;2.87;0.73;;;4.00;99.90;;;;;;5028007;28;20282;-75
2022/04/08 07:18:51;;;;;;;0.60;0.57;;;4.10;99.90;;;;;;5028608;28;20204;-74
2022/04/08 07:21:40;;;;;;;1.20;0.73;;;4.20;99.90;;;;;;5027711;28;20282;-75
2022/04/08 07:24:08;;;;;;;2.60;0.80;;;4.40;99.90;;;;;;5026040;28;20693;-74
2022/04/08 07:26:35;;;;;;;2.30;0.90;;;4.40;99.90;;;;;;5027599;28;20224;-74
2022/04/08 07:29:02;;;;;;;1.77;1.00;;;4.60;99.90;;;;;;5028278;28;20615;-74
2022/04/08 07:31:28;;;;;;;2.97;1.00;;;4.60;99.90;;;;;;5028470;28;20201;-74
2022/04/08 07:33:55;;;;;;;0.87;0.67;;;4.70;99.90;;;;;;5027659;28;20209;-74
2022/04/08 07:36:22;;;;;;;2.77;0.90;;;4.80;99.90;;;;;;5028412;28;20208;-74
2022/04/08 07:38:49;;;;;;;0.80;0.70;;;4.80;99.90;;;;;;5028783;28;20216;-74
2022/04/08 07:41:29;;;;;;;1.90;0.90;;;4.90;99.90;;;;;;5028457;28;20294;-74
2022/04/08 07:43:56;;;;;;;2.27;0.80;;;4.90;99.90;;;;;;5028534;28;20225;-75
2022/04/08 07:46:23;;;;;;;2.10;1.10;;;4.90;99.90;;;;;;5023744;28;20209;-74
2022/04/08 07:48:49;;;;;;;0.90;0.90;;;5.00;99.90;;;;;;5045254;28;20215;-75
2022/04/08 07:51:22;;;;;;;1.33;0.90;;;5.20;99.90;;;;;;5025476;28;20201;-75
2022/04/08 07:53:49;;;;;;;3.90;1.13;;;5.30;99.90;;;;;;5028034;28;20236;-74
2022/04/08 07:56:21;;;;;;;2.30;0.90;;;5.40;99.90;;;;;;5028378;28;20200;-75
2022/04/08 07:58:49;;;;;;;4.73;2.03;;;5.70;99.90;;;;;;5028223;28;20603;-74
2022/04/08 08:01:25;;;;;;;3.23;1.03;;;5.70;99.90;;;;;;5027694;28;20192;-75
2022/04/08 08:03:52;;;;;;;2.77;1.40;;;5.90;99.90;;;;;;5027955;28;20204;-74
2022/04/08 08:06:22;;;;;;;4.40;1.03;;;6.00;99.90;;;;;;5027723;28;20946;-75
2022/04/08 08:08:50;;;;;;;3.47;0.97;;;6.10;99.90;;;;;;5028140;28;20193;-75
2022/04/08 08:11:23;;;;;;;2.60;1.53;;;6.20;99.90;;;;;;5028289;28;20213;-75
2022/04/08 08:13:51;;;;;;;4.03;1.10;;;6.30;99.90;;;;;;5028033;28;20205;-75
2022/04/08 08:16:17;;;;;;;2.83;1.23;;;6.40;99.90;;;;;;5025909;28;20208;-75
2022/04/08 08:18:44;;;;;;;3.23;1.27;;;6.50;99.90;;;;;;5028874;28;20201;-75
2022/04/08 08:21:20;;;;;;;3.63;1.23;;;6.60;99.90;;;;;;5027522;28;20244;-75
2022/04/08 08:23:46;;;;;;;4.20;1.37;;;6.70;99.90;;;;;;5027611;28;20208;-76
2022/04/08 08:26:22;;;;;;;5.73;1.50;;;6.80;99.90;;;;;;5027585;28;20201;-75
2022/04/08 08:28:50;;;;;;;3.60;1.10;;;7.00;99.90;;;;;;5027957;28;20247;-74
2022/04/08 08:31:35;;;;;;;1.63;1.03;;;6.90;99.90;;;;;;5025132;28;20672;-74
2022/04/08 08:34:02;;;;;;;2.90;1.00;;;7.00;99.90;;;;;;5027029;28;20209;-75
2022/04/08 08:36:29;;;;;;;3.67;1.07;;;6.90;99.90;;;;;;5027432;28;20270;-75
2022/04/08 08:38:56;;;;;;;4.60;1.30;;;6.90;99.90;;;;;;5024771;28;20275;-75
2022/04/08 08:41:24;;;;;;;4.67;1.00;;;6.90;99.90;;;;;;5027896;28;20212;-74
2022/04/08 08:43:54;;;;;;;3.30;1.63;;;7.00;99.90;;;;;;5028674;28;20205;-75
2022/04/08 08:46:22;;;;;;;4.80;1.67;;;7.00;99.90;;;;;;5025978;28;20266;-75
2022/04/08 08:48:51;;;;;;;4.67;1.83;;;7.10;99.90;;;;;;5027530;28;20254;-75
2022/04/08 08:51:21;;;;;;;3.97;1.67;;;7.30;99.90;;;;;;5024324;28;20204;-75
2022/04/08 08:53:47;;;;;;;4.77;1.73;;;7.30;99.90;;;;;;5019585;28;20216;-74
2022/04/08 08:56:18;;;;;;;4.63;1.20;;;7.10;99.90;;;;;;5025297;28;20217;-74
2022/04/08 08:58:45;;;;;;;2.87;1.00;;;7.10;99.90;;;;;;5025646;28;20335;-75
2022/04/08 09:01:19;;;;;;;2.33;0.77;;;7.10;99.90;;;;;;5025400;28;20209;-75
2022/04/08 09:03:45;;;;;;;2.33;1.10;;;7.10;99.90;;;;;;5025256;28;20267;-74
2022/04/08 09:06:18;;;;;;;2.63;1.00;;;7.20;99.90;;;;;;5024840;28;20233;-75
2022/04/08 09:08:54;;;;;;;3.77;1.20;;;7.30;99.90;;;;;;5024941;28;20678;-75
2022/04/08 09:11:58;;;;;;;2.17;0.73;;;7.30;99.90;;;;;;5023589;28;20292;-75
2022/04/08 09:14:30;;;;;;;3.40;1.00;;;7.40;99.90;;;;;;5020319;28;20334;-75
2022/04/08 09:17:02;;;;;;;2.77;1.10;;;7.70;99.90;;;;;;5022875;28;20205;-74
2022/04/08 09:19:33;;;;;;;2.53;1.10;;;7.70;99.90;;;;;;5025296;28;20198;-75
2022/04/08 09:22:00;;;;;;;3.80;1.30;;;7.70;99.90;;;;;;5023063;28;20205;-74
2022/04/08 09:24:28;;;;;;;3.17;1.03;;;7.60;99.90;;;;;;5025100;28;20298;-75
2022/04/08 09:26:55;;;;;;;3.27;1.00;;;7.60;99.90;;;;;;5024569;28;20252;-75
2022/04/08 09:29:22;;;;;;;3.40;1.17;;;7.60;99.90;;;;;;5025079;28;20251;-75
2022/04/08 09:31:49;;;;;;;1.80;0.83;;;7.70;99.90;;;;;;5025179;28;20200;-77
2022/04/08 09:34:20;;;;;;;2.23;1.23;;;7.60;99.90;;;;;;5022714;28;20216;-75
2022/04/08 09:36:47;;;;;;;1.70;0.77;;;7.70;99.90;;;;;;5024005;28;20256;-75
2022/04/08 09:39:14;;;;;;;1.37;0.90;;;7.80;99.90;;;;;;5027583;28;20197;-75
2022/04/08 09:41:42;;;;;;;2.50;1.10;;;7.80;99.90;;;;;;5026786;28;20212;-74
2022/04/08 09:44:11;;;;;;;4.70;1.23;;;7.70;99.90;;;;;;5028128;28;20611;-74
2022/04/08 09:46:56;;;;;;;2.53;1.13;;;7.80;99.90;;;;;;5029000;28;20209;-75
2022/04/08 09:49:24;;;;;;;1.97;0.90;;;8.10;99.90;;;;;;5028200;28;20572;-75
2022/04/08 09:51:52;;;;;;;3.40;1.00;;;8.00;99.90;;;;;;5028297;28;20193;-74
2022/04/08 09:54:22;;;;;;;1.37;0.70;;;7.80;99.90;;;;;;5028316;28;20236;-75
2022/04/08 09:56:49;;;;;;;3.50;1.00;;;7.80;99.90;;;;;;5028065;28;20244;-74
2022/04/08 09:59:19;;;;;;;2.60;1.10;;;8.10;99.90;;;;;;5028547;28;20292;-74
2022/04/08 10:01:47;;;;;;;1.50;0.80;;;8.20;99.90;;;;;;5028280;28;20215;-74
2022/04/08 10:04:14;;;;;;;2.07;0.80;;;8.20;99.90;;;;;;5028177;28;20228;-74
2022/04/08 10:07:24;;;;;;;1.47;1.00;;;8.10;99.90;;;;;;5027968;28;20204;-75
2022/04/08 10:10:01;;;;;;;1.73;0.80;;;8.00;99.90;;;;;;5027723;28;20208;-75
2022/04/08 10:12:35;;;;;;;1.07;0.60;;;7.90;99.90;;;;;;5027893;28;20197;-75
2022/04/08 10:15:09;;;;;;;1.27;1.03;;;7.80;99.90;;;;;;5028002;28;20274;-75
2022/04/08 10:17:36;;;;;;;3.47;0.80;;;7.80;99.90;;;;;;5035732;28;20210;-76
2022/04/08 10:20:16;;;;;;;4.13;1.00;;;7.90;99.90;;;;;;5045527;28;20263;-76
2022/04/08 10:22:43;;;;;;;1.20;0.87;;;8.10;99.90;;;;;;5027342;28;20205;-76
2022/04/08 10:25:16;;;;;;;2.07;0.83;;;8.20;99.90;;;;;;5027130;28;20295;-75
2022/04/08 10:27:44;;;;;;;1.60;0.70;;;8.30;99.90;;;;;;5027814;28;20315;-76
2022/04/08 10:30:12;;;;;;;2.10;0.83;;;8.60;99.90;;;;;;5027522;28;20220;-75
2022/04/08 10:32:39;;;;;;;1.90;0.73;;;8.60;99.90;;;;;;5027633;28;20328;-76
2022/04/08 10:35:18;;;;;;;3.13;0.87;;;8.60;99.90;;;;;;5021874;28;20292;-75
2022/04/08 10:37:55;;;;;;;1.70;0.93;;;8.50;99.90;;;;;;5027464;28;20244;-75
2022/04/08 10:40:30;;;;;;;1.00;0.50;;;8.30;99.90;;;;;;5027337;28;20250;-75
2022/04/08 10:42:58;;;;;;;2.87;0.90;;;8.40;99.90;;;;;;5027010;28;20204;-75
2022/04/08 10:45:25;;;;;;;1.37;0.90;;;8.50;99.90;;;;;;5026922;28;20727;-75
2022/04/08 10:47:51;;;;;;;2.47;0.73;;;8.40;99.90;;;;;;5027238;28;20213;-75
2022/04/08 10:50:26;;;;;;;1.20;0.63;;;8.40;99.90;;;;;;5027352;28;20279;-75
2022/04/08 10:53:07;;;;;;;0.73;0.70;;;8.30;99.90;;;;;;5011634;28;20710;-75
2022/04/08 10:55:47;;;;;;;0.70;0.70;;;8.20;99.90;;;;;;5028086;28;20655;-75
2022/04/08 10:58:15;;;;;;;1.87;0.67;;;8.00;99.90;;;;;;5027596;28;20204;-75
2022/04/08 11:00:42;;;;;;;2.63;0.90;;;8.10;99.90;;;;;;5027511;28;20634;-75
2022/04/08 11:03:11;;;;;;;2.70;1.00;;;8.10;99.90;;;;;;5027225;28;20591;-76
2022/04/08 11:05:39;;;;;;;2.23;0.70;;;8.20;99.90;;;;;;5027273;28;20240;-75
2022/04/08 11:08:07;;;;;;;1.47;1.03;;;8.10;99.90;;;;;;5026902;28;20205;-75
2022/04/08 11:10:34;;;;;;;1.80;0.90;;;8.10;99.90;;;;;;5027194;28;20217;-75
2022/04/08 11:13:02;;;;;;;2.27;0.70;;;8.20;99.90;;;;;;5026163;28;20959;-75
2022/04/08 11:15:30;;;;;;;1.13;0.73;;;8.30;99.90;;;;;;5026667;28;20221;-75
2022/04/08 11:17:59;;;;;;;1.03;0.63;;;8.20;99.90;;;;;;5024981;28;20648;-75
2022/04/08 11:20:26;;;;;;;2.30;0.70;;;8.20;99.90;;;;;;5025424;28;20244;-75
2022/04/08 11:22:55;;;;;;;2.07;0.90;;;8.20;99.90;;;;;;5021672;28;21125;-75
2022/04/08 11:25:22;;;;;;;1.90;1.03;;;8.30;99.90;;;;;;5027146;28;20938;-75
2022/04/08 11:27:58;;;;;;;3.73;0.97;;;8.20;99.90;;;;;;5025967;28;20594;-75
2022/04/08 11:30:26;;;;;;;1.13;0.80;;;8.50;99.90;;;;;;5026798;28;20205;-75
2022/04/08 11:32:53;;;;;;;3.33;1.00;;;8.80;99.90;;;;;;5036076;28;20219;-75
2022/04/08 11:35:20;;;;;;;2.63;0.87;;;9.10;99.90;;;;;;5042177;28;20620;-75
2022/04/08 11:37:47;;;;;;;2.30;0.97;;;9.40;99.90;;;;;;5026864;28;20216;-75
2022/04/08 11:40:17;;;;;;;1.70;0.70;;;9.30;99.90;;;;;;5026192;28;20205;-75
2022/04/08 11:42:44;;;;;;;1.60;0.80;;;9.00;99.90;;;;;;5026321;28;20197;-75
2022/04/08 11:45:11;;;;;;;1.90;0.73;;;8.70;99.90;;;;;;5025859;28;20269;-75
2022/04/08 11:47:46;;;;;;;1.40;0.90;;;8.80;99.90;;;;;;5025311;28;20256;-78
2022/04/08 11:50:13;;;;;;;1.10;0.80;;;8.80;99.90;;;;;;5023304;28;20263;-75
2022/04/08 11:52:40;;;;;;;1.77;0.90;;;8.70;99.90;;;;;;5026163;28;20212;-75
2022/04/08 11:55:09;;;;;;;2.87;1.10;;;8.70;99.90;;;;;;5026130;28;20197;-75
2022/04/08 11:57:38;;;;;;;2.03;1.20;;;8.70;99.90;;;;;;5025889;28;20201;-75
2022/04/08 12:00:08;;;;;;;1.57;0.83;;;8.80;99.90;;;;;;5022344;28;20259;-75
2022/04/08 12:02:51;;;;;;;2.73;1.00;;;8.80;99.90;;;;;;5026053;28;20262;-75
2022/04/08 12:05:19;;;;;;;4.33;1.23;;;8.80;99.90;;;;;;5023125;28;20788;-75
2022/04/08 12:07:46;;;;;;;2.80;0.80;;;8.70;99.90;;;;;;5026248;28;20204;-75
2022/04/08 12:10:14;;;;;;;2.07;0.90;;;8.60;99.90;;;;;;5026391;28;20212;-75
2022/04/08 12:12:45;;;;;;;2.00;1.60;;;8.70;99.90;;;;;;5026172;28;20263;-74
2022/04/08 12:15:12;;;;;;;4.13;0.80;;;8.60;99.90;;;;;;5025746;28;20209;-74
2022/04/08 12:17:39;;;;;;;1.57;1.17;;;8.70;99.90;;;;;;5033149;28;20303;-74
2022/04/08 12:20:13;;;;;;;2.93;1.10;;;9.00;99.90;;;;;;5028523;28;20236;-74
2022/04/08 12:22:40;;;;;;;2.50;0.80;;;9.30;99.90;;;;;;5025619;28;20210;-74
2022/04/08 12:25:08;;;;;;;1.97;1.00;;;9.50;99.90;;;;;;5025782;28;20537;-74
2022/04/08 12:27:35;;;;;;;1.53;1.07;;;9.70;99.90;;;;;;5024815;28;20314;-77
2022/04/08 12:30:08;;;;;;;1.93;1.20;;;9.80;99.90;;;;;;5016339;28;20758;-80
2022/04/08 12:32:48;;;;;;;2.47;0.93;;;9.60;99.90;;;;;;5025912;28;20227;-79
2022/04/08 12:35:16;;;;;;;1.37;1.10;;;9.40;99.90;;;;;;5023151;28;20219;-77
2022/04/08 12:37:42;;;;;;;2.17;0.83;;;9.20;99.90;;;;;;5025460;28;20274;-74
2022/04/08 12:40:10;;;;;;;4.07;1.20;;;9.20;99.90;;;;;;5025982;28;20212;-76
2022/04/08 12:42:40;;;;;;;2.77;0.83;;;9.20;99.90;;;;;;5026298;28;20208;-77
2022/04/08 12:45:08;;;;;;;2.50;0.80;;;9.10;99.90;;;;;;5025972;28;20306;-75
2022/04/08 12:47:35;;;;;;;1.93;0.80;;;8.90;99.90;;;;;;5025808;28;20262;-74
2022/04/08 12:50:01;;;;;;;3.43;1.20;;;8.90;99.90;;;;;;5025515;28;20213;-75
2022/04/08 12:52:45;;;;;;;3.27;1.10;;;9.00;99.90;;;;;;5025605;28;20212;-75
2022/04/08 12:55:12;;;;;;;0.80;0.80;;;9.10;99.90;;;;;;5024591;28;20211;-75
2022/04/08 12:57:38;;;;;;;3.77;0.97;;;9.20;99.90;;;;;;5025581;28;20236;-75
2022/04/08 13:00:11;;;;;;;1.63;1.17;;;9.20;99.90;;;;;;5006100;28;20664;-74
2022/04/08 13:03:28;;;;;;;1.67;0.93;;;9.20;99.90;;;;;;5017197;28;20302;-75
2022/04/08 13:05:54;;;;;;;3.10;1.10;;;9.10;99.90;;;;;;5025534;28;20232;-75
2022/04/08 13:08:23;;;;;;;1.53;1.07;;;9.10;99.90;;;;;;5025589;28;20205;-75
2022/04/08 13:10:50;;;;;;;5.57;1.30;;;9.10;99.90;;;;;;5025711;28;20217;-75
2022/04/08 13:13:17;;;;;;;1.93;1.20;;;9.00;99.90;;;;;;5029037;28;20243;-75